Aviation Digital Data Service (ADDS)

Output produced by METARs form (1604 UTC 20 March 2019)
found at http://www.aviationweather.gov/metar/data/
 
METAR text: KBIL 201553Z 21015KT 10SM CLR 04/M06 A3025 RMK AO2 SLP261 T00441061
Conditions at: KBIL (BILLINGS , MT, US) observed 1553 UTC 20 March 2019
Temperature: 4.4°C (40°F)
Dewpoint: -6.1°C (21°F) [RH = 46%]
Pressure (altimeter): 30.25 inches Hg (1024.5 mb)
[Sea-level pressure: 1026.1 mb]
Winds: from the SSW (210 degrees) at 17 MPH (15 knots; 7.7 m/s)
Visibility: 10 or more miles (16+ km)
Ceiling: at least 12,000 feet AGL
Clouds: sky clear below 12,000 feet AGL
Weather: no significant weather observed at this time

METAR text: KBIL 201453Z 23014KT 10SM CLR 03/M06 A3024 RMK AO2 SLP259 T00281061 52002
Conditions at: KBIL (BILLINGS , MT, US) observed 1453 UTC 20 March 2019
Temperature: 2.8°C (37°F)
Dewpoint: -6.1°C (21°F) [RH = 52%]
Pressure (altimeter): 30.24 inches Hg (1024.1 mb)
[Sea-level pressure: 1025.9 mb]
Winds: from the SW (230 degrees) at 16 MPH (14 knots; 7.2 m/s)
Visibility: 10 or more miles (16+ km)
Ceiling: at least 12,000 feet AGL
Clouds: sky clear below 12,000 feet AGL
Weather: no significant weather observed at this time

METAR text: KBIL 201353Z 23014KT 10SM CLR M01/M06 A3024 RMK AO2 SLP263 T10061061
Conditions at: KBIL (BILLINGS , MT, US) observed 1353 UTC 20 March 2019
Temperature: -0.6°C (31°F)
Dewpoint: -6.1°C (21°F) [RH = 66%]
Pressure (altimeter): 30.24 inches Hg (1024.1 mb)
[Sea-level pressure: 1026.3 mb]
Winds: from the SW (230 degrees) at 16 MPH (14 knots; 7.2 m/s)
Visibility: 10 or more miles (16+ km)
Ceiling: at least 12,000 feet AGL
Clouds: sky clear below 12,000 feet AGL
Weather: no significant weather observed at this time

METAR text: KBIL 201253Z 23013KT 10SM CLR M02/M06 A3024 RMK AO2 SLP260 T10171061
Conditions at: KBIL (BILLINGS , MT, US) observed 1253 UTC 20 March 2019
Temperature: -1.7°C (29°F)
Dewpoint: -6.1°C (21°F) [RH = 72%]
Pressure (altimeter): 30.24 inches Hg (1024.1 mb)
[Sea-level pressure: 1026.0 mb]
Winds: from the SW (230 degrees) at 15 MPH (13 knots; 6.7 m/s)
Visibility: 10 or more miles (16+ km)
Ceiling: at least 12,000 feet AGL
Clouds: sky clear below 12,000 feet AGL
Weather: no significant weather observed at this time

METAR text: KBIL 201153Z 22015KT 10SM CLR M01/M06 A3024 RMK AO2 SLP258 T10061061 10022 21017 55002
Conditions at: KBIL (BILLINGS , MT, US) observed 1153 UTC 20 March 2019
Temperature: -0.6°C (31°F)
Dewpoint: -6.1°C (21°F) [RH = 66%]
Pressure (altimeter): 30.24 inches Hg (1024.1 mb)
[Sea-level pressure: 1025.8 mb]
Winds: from the SW (220 degrees) at 17 MPH (15 knots; 7.7 m/s)
Visibility: 10 or more miles (16+ km)
Ceiling: at least 12,000 feet AGL
Clouds: sky clear below 12,000 feet AGL
Weather: no significant weather observed at this time

METAR text: KBIL 201053Z 23018KT 10SM CLR M01/M06 A3023 RMK AO2 SLP258 T10061061
Conditions at: KBIL (BILLINGS , MT, US) observed 1053 UTC 20 March 2019
Temperature: -0.6°C (31°F)
Dewpoint: -6.1°C (21°F) [RH = 66%]
Pressure (altimeter): 30.23 inches Hg (1023.8 mb)
[Sea-level pressure: 1025.8 mb]
Winds: from the SW (230 degrees) at 21 MPH (18 knots; 9.3 m/s)
Visibility: 10 or more miles (16+ km)
Ceiling: at least 12,000 feet AGL
Clouds: sky clear below 12,000 feet AGL
Weather: no significant weather observed at this time

METAR text: KBIL 200953Z 22016KT 10SM CLR 00/M06 A3024 RMK AO2 SLP258 T00001056
Conditions at: KBIL (BILLINGS , MT, US) observed 0953 UTC 20 March 2019
Temperature: 0.0°C (32°F)
Dewpoint: -5.6°C (22°F) [RH = 66%]
Pressure (altimeter): 30.24 inches Hg (1024.1 mb)
[Sea-level pressure: 1025.8 mb]
Winds: from the SW (220 degrees) at 18 MPH (16 knots; 8.2 m/s)
Visibility: 10 or more miles (16+ km)
Ceiling: at least 12,000 feet AGL
Clouds: sky clear below 12,000 feet AGL
Weather: no significant weather observed at this time

METAR text: KBIL 200853Z 22015KT 10SM CLR 00/M05 A3024 RMK AO2 SLP260 T00001050 57002
Conditions at: KBIL (BILLINGS , MT, US) observed 0853 UTC 20 March 2019
Temperature: 0.0°C (32°F)
Dewpoint: -5.0°C (23°F) [RH = 69%]
Pressure (altimeter): 30.24 inches Hg (1024.1 mb)
[Sea-level pressure: 1026.0 mb]
Winds: from the SW (220 degrees) at 17 MPH (15 knots; 7.7 m/s)
Visibility: 10 or more miles (16+ km)
Ceiling: at least 12,000 feet AGL
Clouds: sky clear below 12,000 feet AGL
Weather: no significant weather observed at this time

METAR text: KBIL 200753Z 23016KT 10SM CLR 01/M05 A3024 RMK AO2 SLP260 T00111050
Conditions at: KBIL (BILLINGS , MT, US) observed 0753 UTC 20 March 2019
Temperature: 1.1°C (34°F)
Dewpoint: -5.0°C (23°F) [RH = 64%]
Pressure (altimeter): 30.24 inches Hg (1024.1 mb)
[Sea-level pressure: 1026.0 mb]
Winds: from the SW (230 degrees) at 18 MPH (16 knots; 8.2 m/s)
Visibility: 10 or more miles (16+ km)
Ceiling: at least 12,000 feet AGL
Clouds: sky clear below 12,000 feet AGL
Weather: no significant weather observed at this time

METAR text: KBIL 200653Z 23015KT 10SM CLR 02/M06 A3025 RMK AO2 SLP264 T00171056 400891050
Conditions at: KBIL (BILLINGS , MT, US) observed 0653 UTC 20 March 2019
Temperature: 1.7°C (35°F)
Dewpoint: -5.6°C (22°F) [RH = 58%]
Pressure (altimeter): 30.25 inches Hg (1024.5 mb)
[Sea-level pressure: 1026.4 mb]
Winds: from the SW (230 degrees) at 17 MPH (15 knots; 7.7 m/s)
Visibility: 10 or more miles (16+ km)
Ceiling: at least 12,000 feet AGL
Clouds: sky clear below 12,000 feet AGL
Weather: no significant weather observed at this time

METAR text: KBIL 200553Z 22013KT 10SM CLR 02/M04 A3025 RMK AO2 SLP266 T00171044 10083 20017 50000
Conditions at: KBIL (BILLINGS , MT, US) observed 0553 UTC 20 March 2019
Temperature: 1.7°C (35°F)
Dewpoint: -4.4°C (24°F) [RH = 64%]
Pressure (altimeter): 30.25 inches Hg (1024.5 mb)
[Sea-level pressure: 1026.6 mb]
Winds: from the SW (220 degrees) at 15 MPH (13 knots; 6.7 m/s)
Visibility: 10 or more miles (16+ km)
Ceiling: at least 12,000 feet AGL
Clouds: sky clear below 12,000 feet AGL
Weather: no significant weather observed at this time

METAR text: KBIL 200453Z 22012KT 10SM CLR 03/M04 A3025 RMK AO2 SLP267 T00281044
Conditions at: KBIL (BILLINGS , MT, US) observed 0453 UTC 20 March 2019
Temperature: 2.8°C (37°F)
Dewpoint: -4.4°C (24°F) [RH = 59%]
Pressure (altimeter): 30.25 inches Hg (1024.5 mb)
[Sea-level pressure: 1026.7 mb]
Winds: from the SW (220 degrees) at 14 MPH (12 knots; 6.2 m/s)
Visibility: 10 or more miles (16+ km)
Ceiling: at least 12,000 feet AGL
Clouds: sky clear below 12,000 feet AGL
Weather: no significant weather observed at this time

METAR text: KBIL 200353Z 22010KT 10SM CLR 04/M05 A3026 RMK AO2 SLP272 T00391050
Conditions at: KBIL (BILLINGS , MT, US) observed 0353 UTC 20 March 2019
Temperature: 3.9°C (39°F)
Dewpoint: -5.0°C (23°F) [RH = 52%]
Pressure (altimeter): 30.26 inches Hg (1024.8 mb)
[Sea-level pressure: 1027.2 mb]
Winds: from the SW (220 degrees) at 12 MPH (10 knots; 5.1 m/s)
Visibility: 10 or more miles (16+ km)
Ceiling: at least 12,000 feet AGL
Clouds: sky clear below 12,000 feet AGL
Weather: no significant weather observed at this time

METAR text: KBIL 200253Z 24011KT 10SM CLR 06/M06 A3025 RMK AO2 SLP268 T00561056 55000
Conditions at: KBIL (BILLINGS , MT, US) observed 0253 UTC 20 March 2019
Temperature: 5.6°C (42°F)
Dewpoint: -5.6°C (22°F) [RH = 44%]
Pressure (altimeter): 30.25 inches Hg (1024.5 mb)
[Sea-level pressure: 1026.8 mb]
Winds: from the WSW (240 degrees) at 13 MPH (11 knots; 5.7 m/s)
Visibility: 10 or more miles (16+ km)
Ceiling: at least 12,000 feet AGL
Clouds: sky clear below 12,000 feet AGL
Weather: no significant weather observed at this time

METAR text: KBIL 200153Z 24010KT 10SM CLR 06/M04 A3024 RMK AO2 SLP265 T00611044
Conditions at: KBIL (BILLINGS , MT, US) observed 0153 UTC 20 March 2019
Temperature: 6.1°C (43°F)
Dewpoint: -4.4°C (24°F) [RH = 47%]
Pressure (altimeter): 30.24 inches Hg (1024.1 mb)
[Sea-level pressure: 1026.5 mb]
Winds: from the WSW (240 degrees) at 12 MPH (10 knots; 5.1 m/s)
Visibility: 10 or more miles (16+ km)
Ceiling: at least 12,000 feet AGL
Clouds: sky clear below 12,000 feet AGL
Weather: no significant weather observed at this time

METAR text: KBIL 200053Z 23006KT 10SM CLR 08/M05 A3025 RMK AO2 SLP267 T00781050
Conditions at: KBIL (BILLINGS , MT, US) observed 0053 UTC 20 March 2019
Temperature: 7.8°C (46°F)
Dewpoint: -5.0°C (23°F) [RH = 40%]
Pressure (altimeter): 30.25 inches Hg (1024.5 mb)
[Sea-level pressure: 1026.7 mb]
Winds: from the SW (230 degrees) at 7 MPH (6 knots; 3.1 m/s)
Visibility: 10 or more miles (16+ km)
Ceiling: at least 12,000 feet AGL
Clouds: sky clear below 12,000 feet AGL
Weather: no significant weather observed at this time

METAR text: KBIL 192353Z 25005KT 10SM CLR 08/M05 A3025 RMK AO2 SLP264 T00831050 10089 20028 57011
Conditions at: KBIL (BILLINGS , MT, US) observed 2353 UTC 19 March 2019
Temperature: 8.3°C (47°F)
Dewpoint: -5.0°C (23°F) [RH = 38%]
Pressure (altimeter): 30.25 inches Hg (1024.5 mb)
[Sea-level pressure: 1026.4 mb]
Winds: from the WSW (250 degrees) at 6 MPH (5 knots; 2.6 m/s)
Visibility: 10 or more miles (16+ km)
Ceiling: at least 12,000 feet AGL
Clouds: sky clear below 12,000 feet AGL
Weather: no significant weather observed at this time

METAR text: KBIL 192253Z 21006KT 10SM CLR 08/M05 A3026 RMK AO2 SLP269 T00831050
Conditions at: KBIL (BILLINGS , MT, US) observed 2253 UTC 19 March 2019
Temperature: 8.3°C (47°F)
Dewpoint: -5.0°C (23°F) [RH = 38%]
Pressure (altimeter): 30.26 inches Hg (1024.8 mb)
[Sea-level pressure: 1026.9 mb]
Winds: from the SSW (210 degrees) at 7 MPH (6 knots; 3.1 m/s)
Visibility: 10 or more miles (16+ km)
Ceiling: at least 12,000 feet AGL
Clouds: sky clear below 12,000 feet AGL
Weather: no significant weather observed at this time

METAR text: KBIL 192153Z 24006KT 10SM CLR 08/M05 A3027 RMK AO2 SLP273 T00831050
Conditions at: KBIL (BILLINGS , MT, US) observed 2153 UTC 19 March 2019
Temperature: 8.3°C (47°F)
Dewpoint: -5.0°C (23°F) [RH = 38%]
Pressure (altimeter): 30.27 inches Hg (1025.1 mb)
[Sea-level pressure: 1027.3 mb]
Winds: from the WSW (240 degrees) at 7 MPH (6 knots; 3.1 m/s)
Visibility: 10 or more miles (16+ km)
Ceiling: at least 12,000 feet AGL
Clouds: sky clear below 12,000 feet AGL
Weather: no significant weather observed at this time

METAR text: KBIL 192053Z 25006KT 10SM CLR 08/M05 A3028 RMK AO2 SLP277 T00781050 58004
Conditions at: KBIL (BILLINGS , MT, US) observed 2053 UTC 19 March 2019
Temperature: 7.8°C (46°F)
Dewpoint: -5.0°C (23°F) [RH = 40%]
Pressure (altimeter): 30.28 inches Hg (1025.5 mb)
[Sea-level pressure: 1027.7 mb]
Winds: from the WSW (250 degrees) at 7 MPH (6 knots; 3.1 m/s)
Visibility: 10 or more miles (16+ km)
Ceiling: at least 12,000 feet AGL
Clouds: sky clear below 12,000 feet AGL
Weather: no significant weather observed at this time

METAR text: KBIL 191953Z 24006KT 10SM CLR 06/M04 A3030 RMK AO2 SLP281 T00611044
Conditions at: KBIL (BILLINGS , MT, US) observed 1953 UTC 19 March 2019
Temperature: 6.1°C (43°F)
Dewpoint: -4.4°C (24°F) [RH = 47%]
Pressure (altimeter): 30.30 inches Hg (1026.2 mb)
[Sea-level pressure: 1028.1 mb]
Winds: from the WSW (240 degrees) at 7 MPH (6 knots; 3.1 m/s)
Visibility: 10 or more miles (16+ km)
Ceiling: at least 12,000 feet AGL
Clouds: sky clear below 12,000 feet AGL
Weather: no significant weather observed at this time

METAR text: KBIL 191853Z 22009KT 10SM CLR 04/M05 A3030 RMK AO2 SLP285 T00441050
Conditions at: KBIL (BILLINGS , MT, US) observed 1853 UTC 19 March 2019
Temperature: 4.4°C (40°F)
Dewpoint: -5.0°C (23°F) [RH = 50%]
Pressure (altimeter): 30.30 inches Hg (1026.2 mb)
[Sea-level pressure: 1028.5 mb]
Winds: from the SW (220 degrees) at 10 MPH (9 knots; 4.6 m/s)
Visibility: 10 or more miles (16+ km)
Ceiling: at least 12,000 feet AGL
Clouds: sky clear below 12,000 feet AGL
Weather: no significant weather observed at this time

METAR text: KBIL 191753Z 22010KT 10SM CLR 03/M06 A3030 RMK AO2 SLP286 T00281061 10028 21050 58000
Conditions at: KBIL (BILLINGS , MT, US) observed 1753 UTC 19 March 2019
Temperature: 2.8°C (37°F)
Dewpoint: -6.1°C (21°F) [RH = 52%]
Pressure (altimeter): 30.30 inches Hg (1026.2 mb)
[Sea-level pressure: 1028.6 mb]
Winds: from the SW (220 degrees) at 12 MPH (10 knots; 5.1 m/s)
Visibility: 10 or more miles (16+ km)
Ceiling: at least 12,000 feet AGL
Clouds: sky clear below 12,000 feet AGL
Weather: no significant weather observed at this time

METAR text: KBIL 191653Z 21011KT 10SM CLR 01/M06 A3030 RMK AO2 SLP288 T00111056
Conditions at: KBIL (BILLINGS , MT, US) observed 1653 UTC 19 March 2019
Temperature: 1.1°C (34°F)
Dewpoint: -5.6°C (22°F) [RH = 61%]
Pressure (altimeter): 30.30 inches Hg (1026.2 mb)
[Sea-level pressure: 1028.8 mb]
Winds: from the SSW (210 degrees) at 13 MPH (11 knots; 5.7 m/s)
Visibility: 10 or more miles (16+ km)
Ceiling: at least 12,000 feet AGL
Clouds: sky clear below 12,000 feet AGL
Weather: no significant weather observed at this time

METAR text: KBIL 191553Z 22013KT 10SM CLR M01/M07 A3030 RMK AO2 SLP291 T10061067
Conditions at: KBIL (BILLINGS , MT, US) observed 1553 UTC 19 March 2019
Temperature: -0.6°C (31°F)
Dewpoint: -6.7°C (20°F) [RH = 63%]
Pressure (altimeter): 30.30 inches Hg (1026.2 mb)
[Sea-level pressure: 1029.1 mb]
Winds: from the SW (220 degrees) at 15 MPH (13 knots; 6.7 m/s)
Visibility: 10 or more miles (16+ km)
Ceiling: at least 12,000 feet AGL
Clouds: sky clear below 12,000 feet AGL
Weather: no significant weather observed at this time

METAR text: KBIL 191453Z 22013KT 10SM CLR M02/M07 A3030 RMK AO2 SLP291 T10221067 53004
Conditions at: KBIL (BILLINGS , MT, US) observed 1453 UTC 19 March 2019
Temperature: -2.2°C (28°F)
Dewpoint: -6.7°C (20°F) [RH = 71%]
Pressure (altimeter): 30.30 inches Hg (1026.2 mb)
[Sea-level pressure: 1029.1 mb]
Winds: from the SW (220 degrees) at 15 MPH (13 knots; 6.7 m/s)
Visibility: 10 or more miles (16+ km)
Ceiling: at least 12,000 feet AGL
Clouds: sky clear below 12,000 feet AGL
Weather: no significant weather observed at this time

METAR text: KBIL 191353Z 22010KT 10SM CLR M03/M08 A3029 RMK AO2 SLP289 T10331078
Conditions at: KBIL (BILLINGS , MT, US) observed 1353 UTC 19 March 2019
Temperature: -3.3°C (26°F)
Dewpoint: -7.8°C (18°F) [RH = 71%]
Pressure (altimeter): 30.29 inches Hg (1025.8 mb)
[Sea-level pressure: 1028.9 mb]
Winds: from the SW (220 degrees) at 12 MPH (10 knots; 5.1 m/s)
Visibility: 10 or more miles (16+ km)
Ceiling: at least 12,000 feet AGL
Clouds: sky clear below 12,000 feet AGL
Weather: no significant weather observed at this time

METAR text: KBIL 191253Z 22008KT 10SM CLR M03/M07 A3029 RMK AO2 SLP284 T10331067
Conditions at: KBIL (BILLINGS , MT, US) observed 1253 UTC 19 March 2019
Temperature: -3.3°C (26°F)
Dewpoint: -6.7°C (20°F) [RH = 77%]
Pressure (altimeter): 30.29 inches Hg (1025.8 mb)
[Sea-level pressure: 1028.4 mb]
Winds: from the SW (220 degrees) at 9 MPH (8 knots; 4.1 m/s)
Visibility: 10 or more miles (16+ km)
Ceiling: at least 12,000 feet AGL
Clouds: sky clear below 12,000 feet AGL
Weather: no significant weather observed at this time

METAR text: KBIL 191153Z 23008KT 10SM CLR M02/M07 A3028 RMK AO2 SLP280 T10221072 10017 21033 53004
Conditions at: KBIL (BILLINGS , MT, US) observed 1153 UTC 19 March 2019
Temperature: -2.2°C (28°F)
Dewpoint: -7.2°C (19°F) [RH = 69%]
Pressure (altimeter): 30.28 inches Hg (1025.5 mb)
[Sea-level pressure: 1028.0 mb]
Winds: from the SW (230 degrees) at 9 MPH (8 knots; 4.1 m/s)
Visibility: 10 or more miles (16+ km)
Ceiling: at least 12,000 feet AGL
Clouds: sky clear below 12,000 feet AGL
Weather: no significant weather observed at this time

METAR text: KBIL 191053Z 21007KT 10SM CLR M03/M06 A3027 RMK AO2 SLP277 T10281061
Conditions at: KBIL (BILLINGS , MT, US) observed 1053 UTC 19 March 2019
Temperature: -2.8°C (27°F)
Dewpoint: -6.1°C (21°F) [RH = 78%]
Pressure (altimeter): 30.27 inches Hg (1025.1 mb)
[Sea-level pressure: 1027.7 mb]
Winds: from the SSW (210 degrees) at 8 MPH (7 knots; 3.6 m/s)
Visibility: 10 or more miles (16+ km)
Ceiling: at least 12,000 feet AGL
Clouds: sky clear below 12,000 feet AGL
Weather: no significant weather observed at this time

METAR text: KBIL 190953Z 22007KT 10SM CLR M02/M06 A3027 RMK AO2 SLP273 T10221061
Conditions at: KBIL (BILLINGS , MT, US) observed 0953 UTC 19 March 2019
Temperature: -2.2°C (28°F)
Dewpoint: -6.1°C (21°F) [RH = 75%]
Pressure (altimeter): 30.27 inches Hg (1025.1 mb)
[Sea-level pressure: 1027.3 mb]
Winds: from the SW (220 degrees) at 8 MPH (7 knots; 3.6 m/s)
Visibility: 10 or more miles (16+ km)
Ceiling: at least 12,000 feet AGL
Clouds: sky clear below 12,000 feet AGL
Weather: no significant weather observed at this time

METAR text: KBIL 190853Z 30006KT 10SM CLR M01/M07 A3027 RMK AO2 SLP273 T10111072 53005
Conditions at: KBIL (BILLINGS , MT, US) observed 0853 UTC 19 March 2019
Temperature: -1.1°C (30°F)
Dewpoint: -7.2°C (19°F) [RH = 63%]
Pressure (altimeter): 30.27 inches Hg (1025.1 mb)
[Sea-level pressure: 1027.3 mb]
Winds: from the WNW (300 degrees) at 7 MPH (6 knots; 3.1 m/s)
Visibility: 10 or more miles (16+ km)
Ceiling: at least 12,000 feet AGL
Clouds: sky clear below 12,000 feet AGL
Weather: no significant weather observed at this time

METAR text: KBIL 190753Z 24007KT 10SM CLR 00/M06 A3026 RMK AO2 SLP270 T00001056
Conditions at: KBIL (BILLINGS , MT, US) observed 0753 UTC 19 March 2019
Temperature: 0.0°C (32°F)
Dewpoint: -5.6°C (22°F) [RH = 66%]
Pressure (altimeter): 30.26 inches Hg (1024.8 mb)
[Sea-level pressure: 1027.0 mb]
Winds: from the WSW (240 degrees) at 8 MPH (7 knots; 3.6 m/s)
Visibility: 10 or more miles (16+ km)
Ceiling: at least 12,000 feet AGL
Clouds: sky clear below 12,000 feet AGL
Weather: no significant weather observed at this time

METAR text: KBIL 190653Z 23006KT 10SM CLR 00/M06 A3026 RMK AO2 SLP274 T00001056 400781056
Conditions at: KBIL (BILLINGS , MT, US) observed 0653 UTC 19 March 2019
Temperature: 0.0°C (32°F)
Dewpoint: -5.6°C (22°F) [RH = 66%]
Pressure (altimeter): 30.26 inches Hg (1024.8 mb)
[Sea-level pressure: 1027.4 mb]
Winds: from the SW (230 degrees) at 7 MPH (6 knots; 3.1 m/s)
Visibility: 10 or more miles (16+ km)
Ceiling: at least 12,000 feet AGL
Clouds: sky clear below 12,000 feet AGL
Weather: no significant weather observed at this time

METAR text: KBIL 190553Z VRB04KT 10SM CLR 00/M04 A3025 RMK AO2 SLP273 T00001044 10067 21011 51008
Conditions at: KBIL (BILLINGS , MT, US) observed 0553 UTC 19 March 2019
Temperature: 0.0°C (32°F)
Dewpoint: -4.4°C (24°F) [RH = 72%]
Pressure (altimeter): 30.25 inches Hg (1024.5 mb)
[Sea-level pressure: 1027.3 mb]
Winds: variable direction winds at 5 MPH (4 knots; 2.1 m/s)
Visibility: 10 or more miles (16+ km)
Ceiling: at least 12,000 feet AGL
Clouds: sky clear below 12,000 feet AGL
Weather: no significant weather observed at this time

METAR text: KBIL 190453Z 21004KT 10SM CLR 02/M05 A3025 RMK AO2 SLP270 T00221050
Conditions at: KBIL (BILLINGS , MT, US) observed 0453 UTC 19 March 2019
Temperature: 2.2°C (36°F)
Dewpoint: -5.0°C (23°F) [RH = 59%]
Pressure (altimeter): 30.25 inches Hg (1024.5 mb)
[Sea-level pressure: 1027.0 mb]
Winds: from the SSW (210 degrees) at 5 MPH (4 knots; 2.1 m/s)
Visibility: 10 or more miles (16+ km)
Ceiling: at least 12,000 feet AGL
Clouds: sky clear below 12,000 feet AGL
Weather: no significant weather observed at this time

Forecast for: KBIL (BILLINGS , MT, US)
Text: KBIL 201123Z 2012/2112 23018KT P6SM SKC
Forecast period: 1200 to 1900 UTC 20 March 2019
Forecast type: FROM: standard forecast or significant change
Winds: from the SW (230 degrees) at 21 MPH (18 knots; 9.3 m/s)
Visibility: 6 or more miles 10+ km)
Clouds: clear skies
Weather: no significant weather forecast for this period
Text: FM201900 23012KT P6SM SKC
Forecast period: 1900 UTC 20 March 2019 to 1200 UTC 21 March 2019
Forecast type: FROM: standard forecast or significant change
Winds: from the SW (230 degrees) at 14 MPH (12 knots; 6.2 m/s)
Visibility: 6 or more miles 10+ km)
Clouds: clear skies
Weather: no significant weather forecast for this period